Time;durP1;ratioP1;P1;durP2;ratioP2;P2;SDS_P1;SDS_P2;PMS_P1;PMS_P2;Temp;Humidity;BMP_temperature;BMP_pressure;BME280_temperature;BME280_humidity;BME280_pressure;Samples;Min_cycle;Max_cycle;Signal;HPM_P1;HPM_P2
2022/03/23 00:02:18;;;;;;;4.77;1.70;;;;;;;-142.91;100.00;56616.03;4995552;28;20307;-70
2022/03/23 00:04:45;;;;;;;4.80;2.20;;;;;;;-142.91;100.00;56616.03;4994906;28;20711;-71
2022/03/23 00:07:12;;;;;;;3.22;2.15;;;;;;;-142.91;100.00;56616.03;4996716;28;20262;-70
2022/03/23 00:09:40;;;;;;;2.97;2.05;;;;;;;-142.91;100.00;56616.03;4995998;28;20749;-71
2022/03/23 00:12:08;;;;;;;5.28;2.03;;;;;;;-142.91;100.00;56616.03;4996734;28;20218;-70
2022/03/23 00:14:35;;;;;;;4.65;2.42;;;;;;;-142.91;100.00;56616.03;4995651;28;20216;-70
2022/03/23 00:17:03;;;;;;;3.97;1.98;;;;;;;-142.91;100.00;56616.03;4996158;28;20591;-71
2022/03/23 00:19:30;;;;;;;2.33;2.08;;;;;;;-142.91;100.00;56616.03;4994591;28;20246;-70
2022/03/23 00:21:57;;;;;;;3.55;1.80;;;;;;;-142.91;100.00;56616.03;4995571;28;20209;-70
2022/03/23 00:24:25;;;;;;;4.10;2.28;;;;;;;-142.91;100.00;56616.03;4995355;28;20241;-70
2022/03/23 00:26:53;;;;;;;4.22;2.00;;;;;;;-142.91;100.00;56616.03;4995042;28;20235;-70
2022/03/23 00:29:20;;;;;;;3.33;2.10;;;;;;;-142.91;100.00;56616.03;4995575;28;20200;-70
2022/03/23 00:31:46;;;;;;;3.42;2.10;;;;;;;-142.91;100.00;56616.03;4994317;28;20200;-69
2022/03/23 00:34:13;;;;;;;4.28;2.25;;;;;;;-142.91;100.00;56616.03;4995700;28;20831;-69
2022/03/23 00:36:40;;;;;;;3.55;1.90;;;;;;;-142.91;100.00;56616.03;4995353;28;20208;-69
2022/03/23 00:39:07;;;;;;;8.98;2.85;;;;;;;-142.91;100.00;56616.03;4994896;28;20583;-69
2022/03/23 00:41:34;;;;;;;7.45;2.38;;;;;;;-142.91;100.00;56616.03;4995775;28;20664;-70
2022/03/23 00:44:03;;;;;;;2.95;1.83;;;;;;;-142.91;100.00;56616.03;4995409;28;20257;-70
2022/03/23 00:46:29;;;;;;;3.30;2.30;;;;;;;-142.91;100.00;56616.03;4995380;28;20240;-70
2022/03/23 00:48:56;;;;;;;4.15;2.40;;;;;;;-142.91;100.00;56616.03;4996004;28;20204;-70
2022/03/23 00:51:23;;;;;;;10.75;2.65;;;;;;;-142.91;100.00;56616.03;4997117;28;21776;-70
2022/03/23 00:53:50;;;;;;;2.40;2.20;;;;;;;-142.91;100.00;56616.03;4996843;28;20253;-70
2022/03/23 00:56:18;;;;;;;2.33;2.10;;;;;;;-142.91;100.00;56616.03;4996472;28;20739;-70
2022/03/23 00:58:45;;;;;;;9.85;2.28;;;;;;;-142.91;100.00;56616.03;4995701;28;20212;-69
2022/03/23 01:01:13;;;;;;;5.97;2.67;;;;;;;-142.91;100.00;56616.03;4995980;28;20723;-70
2022/03/23 01:03:40;;;;;;;4.88;2.20;;;;;;;-142.91;100.00;56616.03;4996022;28;20204;-69
2022/03/23 01:06:08;;;;;;;5.85;3.25;;;;;;;-142.91;100.00;56616.03;4997253;28;20236;-70
2022/03/23 01:08:35;;;;;;;3.45;2.10;;;;;;;-142.91;100.00;56616.03;4997338;28;20612;-70
2022/03/23 01:11:02;;;;;;;2.70;1.95;;;;;;;-142.91;100.00;56616.03;4996469;28;20667;-70
2022/03/23 01:13:30;;;;;;;4.03;2.20;;;;;;;-142.91;100.00;56616.03;4996023;28;20210;-70
2022/03/23 01:15:56;;;;;;;3.55;2.40;;;;;;;-142.91;100.00;56616.03;4996978;28;20204;-71
2022/03/23 01:18:25;;;;;;;5.03;2.95;;;;;;;-142.91;100.00;56616.03;4996002;28;20683;-70
2022/03/23 01:20:51;;;;;;;7.65;2.85;;;;;;;-142.91;100.00;56616.03;4995838;28;20221;-69
2022/03/23 01:23:18;;;;;;;4.40;2.45;;;;;;;-142.91;100.00;56616.03;4996708;28;20208;-70
2022/03/23 01:25:45;;;;;;;5.93;2.78;;;;;;;-142.91;100.00;56616.03;4996393;28;20232;-70
2022/03/23 01:28:12;;;;;;;3.15;2.00;;;;;;;-142.91;100.00;56616.03;4996665;28;20245;-70
2022/03/23 01:30:39;;;;;;;2.20;2.08;;;;;;;-142.91;100.00;56616.03;4996930;28;20207;-69
2022/03/23 01:33:06;;;;;;;6.05;1.58;;;;;;;-142.91;100.00;56616.03;4994347;28;20220;-70
2022/03/23 01:35:34;;;;;;;6.75;2.58;;;;;;;-142.91;100.00;56616.03;4996318;28;20687;-69
2022/03/23 01:38:01;;;;;;;5.30;2.53;;;;;;;-142.91;100.00;56616.03;4994838;28;20644;-69
2022/03/23 01:40:28;;;;;;;11.45;2.45;;;;;;;-142.91;100.00;56616.03;4995334;28;20729;-69
2022/03/23 01:42:55;;;;;;;3.37;2.30;;;;;;;-142.91;100.00;56616.03;4996033;28;20201;-69
2022/03/23 01:45:22;;;;;;;2.55;2.10;;;;;;;-142.91;100.00;56616.03;4994743;28;20891;-69
2022/03/23 01:47:49;;;;;;;6.50;2.53;;;;;;;-142.91;100.00;56616.03;4994739;28;20204;-70
2022/03/23 01:50:16;;;;;;;6.15;2.35;;;;;;;-142.91;100.00;56616.03;4996004;28;20712;-69
2022/03/23 01:52:44;;;;;;;4.60;2.58;;;;;;;-142.91;100.00;56616.03;4995660;28;20208;-69
2022/03/23 01:55:13;;;;;;;3.35;2.28;;;;;;;-142.91;100.00;56616.03;4993793;28;20197;-69
2022/03/23 01:57:43;;;;;;;3.43;2.83;;;;;;;-142.91;100.00;56616.03;4995644;28;20261;-69
2022/03/23 02:00:11;;;;;;;3.22;2.38;;;;;;;-142.91;100.00;56616.03;4994641;28;20230;-69
2022/03/23 02:02:40;;;;;;;6.68;2.72;;;;;;;-142.91;100.00;56616.03;4994579;28;20200;-69
2022/03/23 02:05:07;;;;;;;6.32;2.08;;;;;;;-142.91;100.00;56616.03;4994711;28;20239;-70
2022/03/23 02:07:34;;;;;;;2.60;2.00;;;;;;;-142.91;100.00;56616.03;4994287;28;20745;-70
2022/03/23 02:10:04;;;;;;;6.85;2.70;;;;;;;-142.91;100.00;56616.03;4994394;28;20722;-70
2022/03/23 02:12:31;;;;;;;4.38;2.47;;;;;;;-142.91;100.00;56616.03;4995450;28;20204;-70
2022/03/23 02:14:58;;;;;;;3.20;2.30;;;;;;;-142.91;100.00;56616.03;4995563;28;20213;-69
2022/03/23 02:17:25;;;;;;;4.25;2.25;;;;;;;-142.91;100.00;56616.03;4995104;28;20205;-69
2022/03/23 02:19:53;;;;;;;5.57;2.63;;;;;;;-142.91;100.00;56616.03;4994984;28;20295;-68
2022/03/23 02:22:21;;;;;;;5.20;2.03;;;;;;;-142.91;100.00;56616.03;4995137;28;20209;-68
2022/03/23 02:24:48;;;;;;;2.25;2.03;;;;;;;-142.91;100.00;56616.03;4994204;28;20312;-69
2022/03/23 02:27:15;;;;;;;3.53;2.10;;;;;;;-142.91;100.00;56616.03;4995167;28;20231;-71
2022/03/23 02:29:43;;;;;;;3.80;2.33;;;;;;;-142.91;100.00;56616.03;4994132;28;20601;-68
2022/03/23 02:32:13;;;;;;;3.40;2.17;;;;;;;-142.91;100.00;56616.03;4991598;28;20248;-69
2022/03/23 02:34:40;;;;;;;5.70;1.92;;;;;;;-142.91;100.00;56616.03;4994255;28;20197;-70
2022/03/23 02:37:06;;;;;;;2.47;2.28;;;;;;;-142.91;100.00;56616.03;4993421;28;21490;-70
2022/03/23 02:39:35;;;;;;;6.47;2.30;;;;;;;-142.91;100.00;56616.03;4995154;28;20291;-70
2022/03/23 02:42:02;;;;;;;3.17;1.92;;;;;;;-142.91;100.00;56616.03;4995745;28;20374;-70
2022/03/23 02:44:30;;;;;;;4.13;2.20;;;;;;;-142.91;100.00;56616.03;4995128;28;20698;-70
2022/03/23 02:46:57;;;;;;;6.00;2.65;;;;;;;-142.91;100.00;56616.03;4994876;28;20231;-70
2022/03/23 02:49:25;;;;;;;6.63;2.25;;;;;;;-142.91;100.00;56616.03;4993445;28;20672;-70
2022/03/23 02:51:52;;;;;;;4.25;2.95;;;;;;;-142.91;100.00;56616.03;4994971;28;20205;-69
2022/03/23 03:02:48;;;;;;;1.73;1.63;;;;;;;-142.91;100.00;56616.03;4996246;28;20219;-70
2022/03/23 03:05:15;;;;;;;9.93;2.90;;;;;;;-142.91;100.00;56616.03;4994174;28;21515;-70
2022/03/23 03:10:27;;;;;;;3.72;2.45;;;;;;;-142.91;100.00;56616.03;4998703;28;20230;-71
2022/03/23 03:12:56;;;;;;;3.73;3.00;;;;;;;-142.91;100.00;56616.03;4997983;28;20197;-73
2022/03/23 03:15:24;;;;;;;5.13;2.23;;;;;;;-142.91;100.00;56616.03;4998833;28;20781;-71
2022/03/23 03:17:51;;;;;;;4.32;2.17;;;;;;;-142.91;100.00;56616.03;4997849;28;20575;-70
2022/03/23 03:20:18;;;;;;;5.90;2.67;;;;;;;-142.91;100.00;56616.03;4998728;28;20630;-71
2022/03/23 03:22:46;;;;;;;2.42;2.03;;;;;;;-142.91;100.00;56616.03;4998681;28;20201;-70
2022/03/23 03:25:15;;;;;;;7.18;2.42;;;;;;;-142.91;100.00;56616.03;4997790;28;20291;-70
2022/03/23 03:27:42;;;;;;;3.23;1.90;;;;;;;-142.91;100.00;56616.03;4998114;28;20261;-71
2022/03/23 03:30:13;;;;;;;4.75;2.17;;;;;;;-142.91;100.00;56616.03;4997147;28;20232;-71
2022/03/23 03:32:41;;;;;;;5.07;2.03;;;;;;;-142.91;100.00;56616.03;4997685;28;20239;-71
2022/03/23 03:35:09;;;;;;;10.57;2.23;;;;;;;-142.91;100.00;56616.03;4997636;28;21075;-71
2022/03/23 03:37:36;;;;;;;8.47;3.87;;;;;;;-142.91;100.00;56616.03;4997577;28;20201;-71
2022/03/23 03:40:04;;;;;;;5.70;2.50;;;;;;;-142.91;100.00;56616.03;4997881;28;20328;-71
2022/03/23 03:42:31;;;;;;;2.00;1.90;;;;;;;-142.91;100.00;56616.03;4998526;28;20300;-71
2022/03/23 03:44:58;;;;;;;2.20;2.00;;;;;;;-142.91;100.00;56616.03;4997320;28;20302;-71
2022/03/23 03:47:26;;;;;;;5.35;2.40;;;;;;;-142.91;100.00;56616.03;4997925;28;20250;-71
2022/03/23 03:49:54;;;;;;;3.43;2.30;;;;;;;-142.91;100.00;56616.03;4997544;28;20196;-71
2022/03/23 03:52:21;;;;;;;6.30;2.33;;;;;;;-142.91;100.00;56616.03;4998026;28;20269;-71
2022/03/23 03:54:47;;;;;;;10.18;2.28;;;;;;;-142.91;100.00;56616.03;4997994;28;20196;-71
2022/03/23 03:57:14;;;;;;;5.13;2.45;;;;;;;-142.91;100.00;56616.03;4997373;28;20196;-70
2022/03/23 03:59:41;;;;;;;2.65;2.30;;;;;;;-142.91;100.00;56616.03;4996784;28;20771;-71
2022/03/23 04:02:08;;;;;;;6.18;2.95;;;;;;;-142.91;100.00;56616.03;4998262;28;20250;-71
2022/03/23 04:04:36;;;;;;;6.95;2.92;;;;;;;-142.91;100.00;56616.03;4997875;28;20339;-70
2022/03/23 04:07:04;;;;;;;4.22;2.35;;;;;;;-142.91;100.00;56616.03;4999020;28;20289;-71
2022/03/23 04:09:30;;;;;;;3.88;2.85;;;;;;;-142.91;100.00;56616.03;4997692;28;20420;-71
2022/03/23 04:11:57;;;;;;;4.60;3.07;;;;;;;-142.91;100.00;56616.03;4997574;28;20239;-71
2022/03/23 04:14:24;;;;;;;3.43;3.13;;;;;;;-142.91;100.00;56616.03;4997330;28;20679;-72
2022/03/23 04:16:51;;;;;;;5.53;3.20;;;;;;;-142.91;100.00;56616.03;4997904;28;20207;-71
2022/03/23 04:19:18;;;;;;;6.73;3.53;;;;;;;-142.91;100.00;56616.03;4997194;28;20208;-71
2022/03/23 04:21:46;;;;;;;8.47;2.87;;;;;;;-142.91;100.00;56616.03;4997712;28;20262;-71
2022/03/23 04:24:13;;;;;;;6.45;3.40;;;;;;;-142.91;100.00;56616.03;4997390;28;20209;-70
2022/03/23 04:26:40;;;;;;;3.50;3.20;;;;;;;-142.91;100.00;56616.03;4997570;28;20236;-71
2022/03/23 04:29:07;;;;;;;7.77;3.10;;;;;;;-142.91;100.00;56616.03;4996824;28;20205;-72
2022/03/23 04:31:34;;;;;;;3.73;2.97;;;;;;;-142.91;100.00;56616.03;4997264;28;20212;-69
2022/03/23 04:34:00;;;;;;;7.63;3.30;;;;;;;-142.91;100.00;56616.03;4997765;28;20293;-72
2022/03/23 04:36:28;;;;;;;5.83;3.47;;;;;;;-142.91;100.00;56616.03;4997289;28;20212;-70
2022/03/23 04:38:56;;;;;;;11.43;4.25;;;;;;;-142.91;100.00;56616.03;4997320;28;20218;-71
2022/03/23 04:41:23;;;;;;;15.10;3.50;;;;;;;-142.91;100.00;56616.03;4998299;28;20204;-71
2022/03/23 04:43:49;;;;;;;7.17;3.40;;;;;;;-142.91;100.00;56616.03;4996526;28;20582;-71
2022/03/23 04:46:16;;;;;;;14.27;3.95;;;;;;;-142.91;100.00;56616.03;4996573;28;20896;-71
2022/03/23 04:48:43;;;;;;;9.23;3.93;;;;;;;-142.91;100.00;56616.03;4997135;28;20209;-70
2022/03/23 04:51:10;;;;;;;10.00;4.07;;;;;;;-142.91;100.00;56616.03;4996759;28;20200;-70
2022/03/23 04:53:36;;;;;;;6.22;4.22;;;;;;;-142.91;100.00;56616.03;4997730;28;20192;-70
2022/03/23 04:56:05;;;;;;;6.07;3.53;;;;;;;-142.91;100.00;56616.03;4997198;28;20660;-70
2022/03/23 04:58:32;;;;;;;9.45;3.60;;;;;;;-142.91;100.00;56616.03;4997105;28;20295;-70
2022/03/23 05:00:58;;;;;;;7.73;3.63;;;;;;;-142.91;100.00;56616.03;4999855;28;20208;-71
2022/03/23 05:03:26;;;;;;;8.33;3.40;;;;;;;-142.91;100.00;56616.03;5010237;28;20632;-71
2022/03/23 05:05:52;;;;;;;8.70;4.40;;;;;;;-142.91;100.00;56616.03;5009379;28;20540;-71
2022/03/23 05:08:19;;;;;;;20.73;4.10;;;;;;;-142.91;100.00;56616.03;5009880;28;20196;-72
2022/03/23 05:10:47;;;;;;;9.13;3.93;;;;;;;-142.91;100.00;56616.03;5009235;28;20286;-70
2022/03/23 05:13:15;;;;;;;7.53;4.00;;;;;;;-142.91;100.00;56616.03;5009197;28;20192;-71
2022/03/23 05:15:41;;;;;;;8.98;4.85;;;;;;;-142.91;100.00;56616.03;5009275;28;20207;-71
2022/03/23 05:18:08;;;;;;;7.72;3.90;;;;;;;-142.91;100.00;56616.03;5009968;28;20647;-70
2022/03/23 05:20:36;;;;;;;13.02;4.20;;;;;;;-142.91;100.00;56616.03;5009947;28;20676;-71
2022/03/23 05:23:03;;;;;;;8.70;4.35;;;;;;;-142.91;100.00;56616.03;5009696;28;20572;-71
2022/03/23 05:25:30;;;;;;;4.85;4.07;;;;;;;-142.91;100.00;56616.03;5009270;28;20640;-72
2022/03/23 05:27:57;;;;;;;6.97;4.30;;;;;;;-142.91;100.00;56616.03;5008967;28;20317;-70
2022/03/23 05:30:25;;;;;;;8.50;3.90;;;;;;;-142.91;100.00;56616.03;5008616;28;20610;-71
2022/03/23 05:32:52;;;;;;;11.45;4.60;;;;;;;-142.91;100.00;56616.03;5009235;28;20236;-71
2022/03/23 05:35:18;;;;;;;9.65;4.10;;;;;;;-142.91;100.00;56616.03;5009566;28;20201;-71
2022/03/23 05:37:45;;;;;;;6.25;3.60;;;;;;;-142.91;100.00;56616.03;5009706;28;20205;-69
2022/03/23 05:40:13;;;;;;;7.13;4.37;;;;;;;-142.91;100.00;56616.03;5008890;28;20193;-70
2022/03/23 05:42:40;;;;;;;12.27;5.22;;;;;;;-142.91;100.00;56616.03;5009006;28;20253;-71
2022/03/23 05:45:08;;;;;;;5.10;4.40;;;;;;;-142.91;100.00;56616.03;5008512;28;20196;-70
2022/03/23 05:47:37;;;;;;;7.97;4.50;;;;;;;-142.91;100.00;56616.03;5008966;28;20323;-72
2022/03/23 05:50:05;;;;;;;9.73;3.97;;;;;;;-142.91;100.00;56616.03;5009688;28;20204;-72
2022/03/23 05:52:32;;;;;;;10.07;4.53;;;;;;;-142.91;100.00;56616.03;5008745;28;20257;-71
2022/03/23 05:55:01;;;;;;;5.55;3.72;;;;;;;-142.91;100.00;56616.03;5008672;28;20205;-72
2022/03/23 05:57:28;;;;;;;8.15;3.35;;;;;;;-142.91;100.00;56616.03;5008423;28;20235;-71
2022/03/23 05:59:55;;;;;;;4.90;3.40;;;;;;;-142.91;100.00;56616.03;5008689;28;20224;-71
2022/03/23 06:02:22;;;;;;;5.25;2.97;;;;;;;-142.91;100.00;56616.03;4998066;28;20304;-71
2022/03/23 06:04:50;;;;;;;3.50;2.75;;;;;;;-142.91;100.00;56616.03;4997399;28;20208;-70
2022/03/23 06:07:17;;;;;;;8.20;3.63;;;;;;;-142.91;100.00;56616.03;4996063;28;20289;-70
2022/03/23 06:09:44;;;;;;;5.57;3.00;;;;;;;-142.91;100.00;56616.03;4995433;28;20901;-72
2022/03/23 06:12:12;;;;;;;7.05;2.70;;;;;;;-142.91;100.00;56616.03;4996569;28;20201;-70
2022/03/23 06:14:42;;;;;;;3.75;2.88;;;;;;;-142.91;100.00;56616.03;4995342;28;20200;-72
2022/03/23 06:17:09;;;;;;;11.88;4.60;;;;;;;-142.91;100.00;56616.03;4996239;28;20241;-71
2022/03/23 06:19:36;;;;;;;8.05;3.78;;;;;;;-142.91;100.00;56616.03;4996671;28;20204;-71
2022/03/23 06:22:05;;;;;;;9.05;4.30;;;;;;;-142.91;100.00;56616.03;4995987;28;20640;-71
2022/03/23 06:24:31;;;;;;;8.00;4.45;;;;;;;-142.91;100.00;56616.03;4996941;28;20208;-71
2022/03/23 06:26:58;;;;;;;6.05;3.65;;;;;;;-142.91;100.00;56616.03;4996499;28;20232;-71
2022/03/23 06:29:25;;;;;;;7.25;3.90;;;;;;;-142.91;100.00;56616.03;4995874;28;20220;-71
2022/03/23 06:31:52;;;;;;;4.22;3.10;;;;;;;-142.91;100.00;56616.03;4995424;28;20649;-70
2022/03/23 06:34:19;;;;;;;5.30;2.55;;;;;;;-142.91;100.00;56616.03;4995709;28;20218;-71
2022/03/23 06:36:46;;;;;;;11.00;3.08;;;;;;;-142.91;100.00;56616.03;4996375;28;20845;-71
2022/03/23 06:39:14;;;;;;;4.22;1.88;;;;;;;-142.91;100.00;56616.03;4996277;28;20201;-71
2022/03/23 06:41:41;;;;;;;8.27;3.33;;;;;;;-142.91;100.00;56616.03;4995921;28;20716;-71
2022/03/23 06:44:08;;;;;;;9.27;2.33;;;;;;;-142.91;100.00;56616.03;4996300;28;20287;-71
2022/03/23 06:46:36;;;;;;;4.78;2.60;;;;;;;-142.91;100.00;56616.03;4994892;28;20322;-72
2022/03/23 06:49:05;;;;;;;5.45;4.43;;;;;;;-142.91;100.00;56616.03;4995044;28;20292;-71
2022/03/23 06:51:32;;;;;;;10.23;2.67;;;;;;;-142.91;100.00;56616.03;4995950;28;20215;-70
2022/03/23 06:53:59;;;;;;;7.05;3.08;;;;;;;-142.91;100.00;56616.03;4995811;28;20204;-71
2022/03/23 06:56:27;;;;;;;8.15;3.03;;;;;;;-142.91;100.00;56616.03;4996011;28;20258;-70
2022/03/23 06:58:54;;;;;;;6.70;3.45;;;;;;;-142.91;100.00;56616.03;4995544;28;20200;-70
2022/03/23 07:01:21;;;;;;;5.15;2.85;;;;;;;-142.91;100.00;56616.03;4994185;28;20228;-70
2022/03/23 07:03:48;;;;;;;5.53;3.25;;;;;;;-142.91;100.00;56616.03;4995349;28;20277;-71
2022/03/23 07:06:16;;;;;;;5.38;3.55;;;;;;;-142.91;100.00;56616.03;4996590;28;20208;-70
2022/03/23 07:11:29;;;;;;;5.82;3.30;;;;;;;-142.91;100.00;56616.03;4994349;28;20253;-70
2022/03/23 07:13:56;;;;;;;8.50;3.13;;;;;;;-142.91;100.00;56616.03;4994374;28;20711;-69
2022/03/23 07:16:23;;;;;;;6.60;3.53;;;;;;;-142.91;100.00;56616.03;4994129;28;20201;-67
2022/03/23 07:18:50;;;;;;;7.13;3.28;;;;;;;-142.91;100.00;56616.03;4994543;28;20216;-69
2022/03/23 07:21:17;;;;;;;5.25;3.17;;;;;;;-142.91;100.00;56616.03;4994188;28;20577;-69
2022/03/23 07:23:44;;;;;;;4.95;2.45;;;;;;;-142.91;100.00;56616.03;4995412;28;20631;-69
2022/03/23 07:26:11;;;;;;;5.65;2.95;;;;;;;-142.91;100.00;56616.03;4994485;28;20391;-70
2022/03/23 07:28:40;;;;;;;6.60;3.10;;;;;;;-142.91;100.00;56616.03;4994706;28;20616;-69
2022/03/23 07:31:08;;;;;;;5.55;2.67;;;;;;;-142.91;100.00;56616.03;4995855;28;20215;-68
2022/03/23 07:33:35;;;;;;;6.30;2.20;;;;;;;-142.91;100.00;56616.03;4993877;28;20231;-71
2022/03/23 07:36:02;;;;;;;6.40;2.95;;;;;;;-142.91;100.00;56616.03;4993725;28;20620;-72
2022/03/23 07:38:28;;;;;;;6.10;2.88;;;;;;;-142.91;100.00;56616.03;4994707;28;20540;-69
2022/03/23 07:40:55;;;;;;;4.13;2.72;;;;;;;-142.91;100.00;56616.03;4992843;28;20661;-69
2022/03/23 07:43:22;;;;;;;3.92;2.40;;;;;;;-142.91;100.00;56616.03;4993768;28;20220;-68
2022/03/23 07:45:50;;;;;;;5.28;2.70;;;;;;;-142.91;100.00;56616.03;4994082;28;20265;-68
2022/03/23 07:48:17;;;;;;;5.80;2.60;;;;;;;-142.91;100.00;56616.03;4994623;28;20224;-70
2022/03/23 07:50:44;;;;;;;5.80;2.60;;;;;;;-142.91;100.00;56616.03;4994431;28;20204;-69
2022/03/23 07:53:11;;;;;;;4.60;2.67;;;;;;;-142.91;100.00;56616.03;4995043;28;20201;-69
2022/03/23 07:55:37;;;;;;;6.68;2.63;;;;;;;-142.91;100.00;56616.03;4996515;28;20209;-70
2022/03/23 07:58:05;;;;;;;4.60;2.63;;;;;;;-142.91;100.00;56616.03;4996837;28;20470;-70
2022/03/23 08:00:32;;;;;;;3.53;2.40;;;;;;;-142.91;100.00;56616.03;4996858;28;20707;-69
2022/03/23 08:03:00;;;;;;;9.48;2.20;;;;;;;-142.91;100.00;56616.03;4996353;28;20253;-69
2022/03/23 08:05:28;;;;;;;4.75;2.00;;;;;;;-142.91;100.00;56616.03;4996888;28;20201;-69
2022/03/23 08:07:55;;;;;;;6.90;2.85;;;;;;;-142.91;100.00;56616.03;4996489;28;20846;-69
2022/03/23 08:10:22;;;;;;;4.95;2.47;;;;;;;-142.91;100.00;56616.03;4995715;28;20873;-68
2022/03/23 08:12:50;;;;;;;7.70;2.67;;;;;;;-142.91;100.00;56616.03;4997733;28;20323;-69
2022/03/23 08:15:17;;;;;;;3.50;2.90;;;;;;;-142.91;100.00;56616.03;4997286;28;20327;-69
2022/03/23 08:17:44;;;;;;;3.45;3.15;;;;;;;-142.91;100.00;56616.03;4996580;28;20589;-70
2022/03/23 08:22:53;;;;;;;7.00;2.80;;;;;;;-142.91;100.00;56616.03;4994191;28;20223;-71
2022/03/23 08:25:20;;;;;;;8.00;2.47;;;;;;;-142.91;100.00;56616.03;4996263;28;20201;-70
2022/03/23 08:27:47;;;;;;;10.15;3.30;;;;;;;-142.91;100.00;56616.03;4996871;28;20289;-70
2022/03/23 08:30:15;;;;;;;5.63;2.40;;;;;;;-142.91;100.00;56616.03;4997046;28;20269;-70
2022/03/23 08:32:41;;;;;;;4.20;2.45;;;;;;;-142.91;100.00;56616.03;4997086;28;20228;-70
2022/03/23 08:35:09;;;;;;;3.60;2.80;;;;;;;-142.91;100.00;56616.03;4995791;28;20257;-69
2022/03/23 08:37:37;;;;;;;8.77;3.03;;;;;;;-142.91;100.00;56616.03;4997129;28;20204;-70
2022/03/23 08:40:05;;;;;;;5.15;2.63;;;;;;;-142.91;100.00;56616.03;4996841;28;20307;-69
2022/03/23 08:42:32;;;;;;;9.02;3.67;;;;;;;-142.91;100.00;56616.03;4996227;28;20208;-70
2022/03/23 08:44:59;;;;;;;4.68;2.38;;;;;;;-142.91;100.00;56616.03;4997267;28;20204;-69
2022/03/23 08:47:27;;;;;;;2.53;2.28;;;;;;;-142.91;100.00;56616.03;4996445;28;20231;-69
2022/03/23 08:49:55;;;;;;;7.15;2.80;;;;;;;-142.91;100.00;56616.03;4995965;28;20351;-69
2022/03/23 08:52:22;;;;;;;6.00;3.20;;;;;;;-142.91;100.00;56616.03;4996533;28;20687;-70
2022/03/23 08:54:51;;;;;;;5.43;3.20;;;;;;;-142.91;100.00;56616.03;4997238;28;20603;-70
2022/03/23 08:57:18;;;;;;;6.03;3.00;;;;;;;-142.91;100.00;56616.03;4997262;28;20205;-70
2022/03/23 08:59:45;;;;;;;7.03;3.15;;;;;;;-142.91;100.00;56616.03;4996678;28;20254;-69
2022/03/23 09:02:12;;;;;;;5.50;3.00;;;;;;;-142.91;100.00;56616.03;4996675;28;20228;-71
2022/03/23 09:04:38;;;;;;;3.83;2.83;;;;;;;-142.91;100.00;56616.03;4995909;28;20209;-70
2022/03/23 09:07:05;;;;;;;7.22;2.97;;;;;;;-142.91;100.00;56616.03;4996282;28;20905;-69
2022/03/23 09:09:32;;;;;;;5.13;2.78;;;;;;;-142.91;100.00;56616.03;4996431;28;20209;-70
2022/03/23 09:12:01;;;;;;;8.38;2.53;;;;;;;-142.91;100.00;56616.03;4996075;28;20349;-70
2022/03/23 09:14:29;;;;;;;5.50;2.75;;;;;;;-142.91;100.00;56616.03;4996190;28;20289;-70
2022/03/23 09:16:56;;;;;;;4.25;2.38;;;;;;;-142.91;100.00;56616.03;4995868;28;20200;-70
2022/03/23 09:19:23;;;;;;;5.32;2.97;;;;;;;-142.91;100.00;56616.03;4996717;28;20208;-71
2022/03/23 09:21:51;;;;;;;9.30;5.10;;;;;;;-142.91;100.00;56616.03;4995120;28;20672;-71
2022/03/23 09:24:19;;;;;;;8.32;2.90;;;;;;;-142.91;100.00;56616.03;4996090;28;20283;-70
2022/03/23 09:26:46;;;;;;;5.07;2.83;;;;;;;-142.91;100.00;56616.03;4995321;28;20211;-69
2022/03/23 09:29:14;;;;;;;5.32;3.00;;;;;;;-142.91;100.00;56616.03;4995322;28;20228;-71
2022/03/23 09:31:41;;;;;;;6.82;3.00;;;;;;;-142.91;100.00;56616.03;4995158;28;20216;-71
2022/03/23 09:34:08;;;;;;;13.40;2.70;;;;;;;-142.91;100.00;56616.03;4995701;28;20236;-69
2022/03/23 09:39:20;;;;;;;5.20;2.83;;;;;;;-142.91;100.00;56616.03;4997439;28;20692;-69
2022/03/23 09:41:47;;;;;;;5.55;2.70;;;;;;;-142.91;100.00;56616.03;4994713;28;20614;-70
2022/03/23 09:44:16;;;;;;;2.58;2.30;;;;;;;-142.91;100.00;56616.03;4996229;28;20269;-70
2022/03/23 09:46:43;;;;;;;9.25;3.13;;;;;;;-142.91;100.00;56616.03;4995758;28;20282;-69
2022/03/23 09:49:11;;;;;;;4.68;2.80;;;;;;;-142.91;100.00;56616.03;4995039;28;20668;-70
2022/03/23 09:51:40;;;;;;;9.30;2.70;;;;;;;-142.91;100.00;56616.03;4994803;28;20561;-70
2022/03/23 09:54:07;;;;;;;4.78;3.45;;;;;;;-142.91;100.00;56616.03;4995947;28;20209;-69
2022/03/23 09:56:34;;;;;;;5.72;2.80;;;;;;;-142.91;100.00;56616.03;4996131;28;20287;-71
2022/03/23 09:59:06;;;;;;;4.28;2.80;;;;;;;-142.91;100.00;56616.03;4994475;28;20625;-70
2022/03/23 10:02:28;;;;;;;6.30;2.88;;;;;;;-142.91;100.00;56616.03;4996603;28;20228;-71
2022/03/23 10:05:35;;;;;;;7.88;3.63;;;;;;;-142.91;100.00;56616.03;4997166;28;20183;-70
2022/03/23 10:08:29;;;;;;;6.88;2.72;;;;;;;-142.91;100.00;56616.03;4992914;28;20231;-71
2022/03/23 10:11:43;;;;;;;8.60;3.28;;;;;;;-142.91;100.00;56616.03;4995910;28;20204;-70
2022/03/23 10:14:47;;;;;;;7.90;3.42;;;;;;;-142.91;100.00;56616.03;5000020;28;20312;-71
2022/03/23 10:17:47;;;;;;;5.13;2.85;;;;;;;-142.91;100.00;56616.03;4994685;28;20196;-70
2022/03/23 10:20:15;;;;;;;6.68;2.83;;;;;;;-142.91;100.00;56616.03;4995683;28;20200;-70
2022/03/23 10:22:47;;;;;;;6.38;2.88;;;;;;;-142.91;100.00;56616.03;4998341;28;20200;-72
2022/03/23 10:25:14;;;;;;;4.70;2.70;;;;;;;-142.91;100.00;56616.03;4998383;28;20212;-71
2022/03/23 10:27:41;;;;;;;6.07;2.90;;;;;;;-142.91;100.00;56616.03;4997233;28;20351;-71
2022/03/23 10:30:09;;;;;;;5.13;2.60;;;;;;;-142.91;100.00;56616.03;4996562;28;20204;-71
2022/03/23 10:32:38;;;;;;;5.57;3.17;;;;;;;-142.91;100.00;56616.03;4994435;28;20228;-71
2022/03/23 10:35:10;;;;;;;5.63;2.70;;;;;;;-142.91;100.00;56616.03;4996303;28;20200;-71
2022/03/23 10:37:37;;;;;;;5.00;2.90;;;;;;;-142.91;100.00;56616.03;4996599;28;20205;-71
2022/03/23 10:40:08;;;;;;;4.18;2.35;;;;;;;-142.91;100.00;56616.03;4995933;28;20226;-71
2022/03/23 10:42:36;;;;;;;3.58;2.67;;;;;;;-142.91;100.00;56616.03;4996649;28;20208;-71
2022/03/23 10:45:08;;;;;;;3.85;2.90;;;;;;;-142.91;100.00;56616.03;4996582;28;20201;-72
2022/03/23 10:47:35;;;;;;;7.70;2.53;;;;;;;-142.91;100.00;56616.03;4995823;28;20216;-71
2022/03/23 10:50:14;;;;;;;7.63;2.47;;;;;;;-142.91;100.00;56616.03;4995967;28;20205;-71
2022/03/23 10:52:55;;;;;;;2.92;2.67;;;;;;;-142.91;100.00;56616.03;4994747;28;20248;-71
2022/03/23 10:55:23;;;;;;;3.72;2.65;;;;;;;-142.91;100.00;56616.03;4994726;28;20231;-71
2022/03/23 10:58:26;;;;;;;4.30;2.40;;;;;;;-142.91;100.00;56616.03;4989374;28;20205;-71
2022/03/23 11:01:03;;;;;;;6.13;2.70;;;;;;;-142.91;100.00;56616.03;4989331;28;20220;-72
2022/03/23 11:03:43;;;;;;;4.03;2.50;;;;;;;-142.91;100.00;56616.03;4990616;28;20193;-72
2022/03/23 11:06:13;;;;;;;3.72;2.40;;;;;;;-142.91;100.00;56616.03;4989639;28;20512;-72
2022/03/23 11:08:43;;;;;;;5.50;2.60;;;;;;;-142.91;100.00;56616.03;4989944;28;20777;-72
2022/03/23 11:16:45;;;;;;;2.78;2.42;;;;;;;-142.91;100.00;56616.03;4988178;28;20628;-72
2022/03/23 11:19:18;;;;;;;10.40;2.55;;;;;;;-142.91;100.00;56616.03;4988558;28;20205;-72
2022/03/23 11:22:04;;;;;;;3.50;2.47;;;;;;;-142.91;100.00;56616.03;4988376;28;20213;-71
2022/03/23 11:24:36;;;;;;;6.57;3.03;;;;;;;-142.91;100.00;56616.03;4989335;28;20596;-71
2022/03/23 11:27:05;;;;;;;10.43;2.90;;;;;;;-142.91;100.00;56616.03;4989130;28;20281;-71
2022/03/23 11:29:33;;;;;;;7.22;3.67;;;;;;;-142.91;100.00;56616.03;4992245;28;20229;-72
2022/03/23 11:32:03;;;;;;;3.35;2.33;;;;;;;-142.91;100.00;56616.03;4992181;28;20197;-71
2022/03/23 11:34:33;;;;;;;6.68;2.95;;;;;;;-142.91;100.00;56616.03;4990913;28;20201;-71
2022/03/23 11:37:03;;;;;;;4.45;2.83;;;;;;;-142.91;100.00;56616.03;4991824;28;20454;-71
2022/03/23 11:39:31;;;;;;;4.72;2.53;;;;;;;-142.91;100.00;56616.03;4992132;28;20300;-71
2022/03/23 11:41:59;;;;;;;2.67;2.35;;;;;;;-142.91;100.00;56616.03;4991622;28;20739;-72